Time;durP1;ratioP1;P1;durP2;ratioP2;P2;SDS_P1;SDS_P2;PMS_P1;PMS_P2;Temp;Humidity;BMP_temperature;BMP_pressure;BME280_temperature;BME280_humidity;BME280_pressure;Samples;Min_cycle;Max_cycle;Signal;HPM_P1;HPM_P2
2023/07/21 00:00:15;;;;;;;2.77;0.63;;;17.80;99.90;;;;;;5072042;28;20557;-79
2023/07/21 00:02:41;;;;;;;2.80;0.53;;;17.90;99.90;;;;;;5071619;28;20405;-80
2023/07/21 00:05:10;;;;;;;3.00;0.60;;;17.90;99.90;;;;;;5071990;28;20426;-82
2023/07/21 00:07:44;;;;;;;2.53;0.40;;;17.90;99.90;;;;;;5072048;28;20417;-81
2023/07/21 00:10:11;;;;;;;4.53;0.60;;;18.10;99.90;;;;;;5070662;28;20930;-80
2023/07/21 00:12:44;;;;;;;3.23;0.60;;;17.90;99.90;;;;;;5078504;28;20460;-81
2023/07/21 00:15:10;;;;;;;0.93;0.40;;;17.90;99.90;;;;;;5077568;28;20428;-76
2023/07/21 00:17:36;;;;;;;2.83;0.60;;;17.90;99.90;;;;;;5079483;28;20420;-78
2023/07/21 00:20:11;;;;;;;1.30;0.53;;;17.90;99.90;;;;;;5079768;28;20556;-78
2023/07/21 00:22:40;;;;;;;3.37;0.80;;;17.90;1.00;;;;;;5079674;28;20436;-85
2023/07/21 00:25:08;;;;;;;1.53;0.50;;;17.90;1.00;;;;;;5079443;28;20452;-78
2023/07/21 00:27:34;;;;;;;2.97;0.47;;;17.80;1.00;;;;;;5079385;28;20410;-85
2023/07/21 00:29:59;;;;;;;1.60;0.50;;;17.80;1.00;;;;;;5079328;28;20413;-85
2023/07/21 00:32:25;;;;;;;1.03;0.47;;;17.80;1.00;;;;;;5079051;28;20410;-84
2023/07/21 00:34:52;;;;;;;2.43;0.40;;;17.70;1.00;;;;;;5079307;28;20171;-83
2023/07/21 00:37:18;;;;;;;3.27;0.60;;;17.70;1.00;;;;;;5079368;28;20161;-77
2023/07/21 00:39:44;;;;;;;4.53;0.83;;;17.60;1.00;;;;;;5079247;28;20864;-79
2023/07/21 00:42:10;;;;;;;0.77;0.37;;;17.60;1.00;;;;;;5077827;28;20215;-85
2023/07/21 00:44:36;;;;;;;3.20;0.50;;;17.60;1.00;;;;;;5079389;28;20432;-82
2023/07/21 00:47:02;;;;;;;2.63;0.80;;;17.60;1.00;;;;;;5078981;28;20412;-84
2023/07/21 00:49:28;;;;;;;1.70;0.40;;;17.50;1.00;;;;;;5079207;28;20711;-78
2023/07/21 00:51:53;;;;;;;1.77;0.70;;;17.40;1.00;;;;;;5079174;28;20417;-78
2023/07/21 00:54:20;;;;;;;1.47;0.93;;;17.30;1.00;;;;;;5079357;28;20182;-78
2023/07/21 00:56:45;;;;;;;3.40;0.30;;;17.30;1.00;;;;;;5077883;28;20190;-78
2023/07/21 00:59:11;;;;;;;2.43;0.70;;;17.20;1.00;;;;;;5078963;28;20472;-83
2023/07/21 01:01:36;;;;;;;2.57;0.40;;;17.10;1.00;;;;;;5079095;28;20174;-81
2023/07/21 01:04:03;;;;;;;2.50;0.83;;;17.00;1.00;;;;;;5078832;28;20588;-85
2023/07/21 01:06:29;;;;;;;3.33;0.60;;;16.90;1.00;;;;;;5077866;28;20264;-83
2023/07/21 01:08:57;;;;;;;4.40;0.67;;;16.80;1.00;;;;;;5078901;28;20966;-79
2023/07/21 01:11:24;;;;;;;1.63;0.80;;;16.70;1.00;;;;;;5079001;28;20908;-78
2023/07/21 01:13:53;;;;;;;3.37;0.50;;;16.60;1.00;;;;;;5078987;28;20415;-84
2023/07/21 01:16:20;;;;;;;1.30;0.60;;;16.50;1.00;;;;;;5078990;28;20470;-78
2023/07/21 01:18:45;;;;;;;0.87;0.43;;;16.40;1.00;;;;;;5078668;28;20834;-78
2023/07/21 01:21:14;;;;;;;2.03;0.60;;;16.30;1.00;;;;;;5077750;28;20437;-79
2023/07/21 01:23:57;;;;;;;2.00;0.60;;;16.20;1.00;;;;;;5088008;28;20603;-80
2023/07/21 01:26:25;;;;;;;2.37;0.50;;;16.10;1.00;;;;;;5096022;28;20431;-79
2023/07/21 01:28:51;;;;;;;2.37;0.80;;;16.10;9.30;;;;;;5095918;28;20416;-82
2023/07/21 01:31:19;;;;;;;3.43;0.70;;;16.00;33.90;;;;;;5095845;28;20505;-82
2023/07/21 01:33:46;;;;;;;1.23;0.60;;;16.00;52.20;;;;;;5094263;28;20415;-83
2023/07/21 01:36:12;;;;;;;2.20;0.60;;;15.90;52.10;;;;;;5095770;28;20448;-82
2023/07/21 01:38:38;;;;;;;1.50;0.70;;;15.90;44.50;;;;;;5094307;28;20450;-77
2023/07/21 01:41:06;;;;;;;3.10;1.27;;;15.80;69.30;;;;;;5095646;28;20421;-83
2023/07/21 01:43:32;;;;;;;1.00;0.50;;;15.70;89.60;;;;;;5095432;28;20463;-82
2023/07/21 01:45:58;;;;;;;3.60;0.80;;;15.70;99.90;;;;;;5095604;28;20414;-84
2023/07/21 01:48:24;;;;;;;1.70;0.60;;;15.70;99.90;;;;;;5095249;28;20218;-84
2023/07/21 01:50:51;;;;;;;1.90;0.60;;;15.70;99.90;;;;;;5095380;28;20168;-84
2023/07/21 01:53:23;;;;;;;2.10;0.40;;;15.60;99.90;;;;;;5095482;28;20815;-84
2023/07/21 01:56:11;;;;;;;2.10;0.67;;;15.60;99.90;;;;;;5095466;28;20414;-80
2023/07/21 01:58:38;;;;;;;1.23;0.40;;;15.50;99.90;;;;;;5095379;28;20454;-80
2023/07/21 02:01:05;;;;;;;3.60;0.87;;;15.50;99.90;;;;;;5095414;28;20504;-83
2023/07/21 02:03:32;;;;;;;1.10;0.50;;;15.50;99.90;;;;;;5094987;28;20430;-78
2023/07/21 02:05:57;;;;;;;3.17;0.90;;;15.60;99.90;;;;;;5095259;28;20415;-82
2023/07/21 02:08:23;;;;;;;1.60;0.50;;;15.60;99.90;;;;;;5095004;28;20903;-80
2023/07/21 02:10:48;;;;;;;2.50;1.10;;;15.70;99.90;;;;;;5095141;28;20290;-78
2023/07/21 02:13:15;;;;;;;3.17;0.90;;;15.70;99.90;;;;;;5095216;28;20165;-82
2023/07/21 02:15:41;;;;;;;2.80;0.57;;;15.60;99.90;;;;;;5095086;28;20228;-79
2023/07/21 02:18:06;;;;;;;3.67;0.70;;;15.60;99.90;;;;;;5094640;28;20513;-83
2023/07/21 02:20:32;;;;;;;2.80;0.93;;;15.70;99.90;;;;;;5094919;28;20466;-79
2023/07/21 02:22:57;;;;;;;4.50;0.90;;;15.70;99.90;;;;;;5094845;28;20191;-78
2023/07/21 02:25:24;;;;;;;1.60;0.33;;;15.70;99.90;;;;;;5094903;28;20661;-77
2023/07/21 02:27:49;;;;;;;4.30;0.50;;;15.70;99.90;;;;;;5094790;28;20629;-80
2023/07/21 02:30:15;;;;;;;1.70;0.67;;;15.60;99.90;;;;;;5094784;28;20421;-84
2023/07/21 02:32:40;;;;;;;2.43;0.50;;;15.60;99.90;;;;;;5094431;28;20571;-81
2023/07/21 02:35:06;;;;;;;1.63;0.50;;;15.60;99.90;;;;;;5093493;28;20165;-83
2023/07/21 02:37:32;;;;;;;1.67;0.50;;;15.60;99.90;;;;;;5094697;28;20225;-83
2023/07/21 02:39:57;;;;;;;1.30;0.40;;;15.60;99.90;;;;;;5094364;28;20618;-85
2023/07/21 02:42:23;;;;;;;1.10;0.43;;;15.60;99.90;;;;;;5094411;28;20220;-86
2023/07/21 02:44:49;;;;;;;1.57;0.57;;;15.60;99.90;;;;;;5094640;28;20191;-77
2023/07/21 02:47:16;;;;;;;1.80;0.30;;;15.60;99.90;;;;;;5094340;28;20175;-78
2023/07/21 02:49:41;;;;;;;2.00;1.17;;;15.60;99.90;;;;;;5094415;28;20180;-87
2023/07/21 02:52:07;;;;;;;2.43;0.87;;;15.60;99.90;;;;;;5094517;28;20408;-78
2023/07/21 02:54:36;;;;;;;3.20;0.77;;;15.50;99.90;;;;;;5094444;28;20169;-79
2023/07/21 02:57:04;;;;;;;0.87;0.43;;;15.50;99.90;;;;;;5094541;28;20686;-88
2023/07/21 02:59:30;;;;;;;4.67;0.73;;;15.40;99.90;;;;;;5094526;28;20951;-88
2023/07/21 03:01:56;;;;;;;2.13;0.90;;;15.40;99.90;;;;;;5094321;28;20429;-76
2023/07/21 03:04:26;;;;;;;2.60;0.80;;;15.40;99.90;;;;;;5093052;28;20190;-81
2023/07/21 03:06:51;;;;;;;2.47;0.77;;;15.30;99.90;;;;;;5093005;28;20419;-81
2023/07/21 03:09:17;;;;;;;4.50;0.63;;;15.30;99.90;;;;;;5094453;28;20848;-86
2023/07/21 03:11:43;;;;;;;2.00;0.90;;;15.30;99.90;;;;;;5094163;28;20175;-76
2023/07/21 03:14:09;;;;;;;0.90;0.87;;;15.30;99.90;;;;;;5094207;28;20435;-86
2023/07/21 03:16:35;;;;;;;2.80;0.30;;;15.30;99.90;;;;;;5091928;28;20184;-77
2023/07/21 03:19:01;;;;;;;1.40;0.60;;;15.30;99.90;;;;;;5093899;28;20468;-87
2023/07/21 03:21:26;;;;;;;3.43;0.80;;;15.30;99.90;;;;;;5093889;28;20258;-77
2023/07/21 03:23:52;;;;;;;2.47;0.90;;;15.30;99.90;;;;;;5093903;28;20184;-87
2023/07/21 03:26:17;;;;;;;2.80;1.20;;;15.20;99.90;;;;;;5094021;28;20183;-86
2023/07/21 03:28:45;;;;;;;4.27;1.10;;;15.20;99.90;;;;;;5093891;28;20659;-83
2023/07/21 03:31:11;;;;;;;3.33;1.23;;;15.30;99.90;;;;;;5093795;28;20671;-88
2023/07/21 03:33:37;;;;;;;3.03;0.90;;;15.40;99.90;;;;;;5093518;28;20903;-82
2023/07/21 03:36:04;;;;;;;1.80;0.90;;;15.40;99.90;;;;;;5092614;28;20422;-86
2023/07/21 03:38:32;;;;;;;3.30;0.70;;;15.50;99.90;;;;;;5093640;28;20657;-88
2023/07/21 03:41:10;;;;;;;2.50;0.60;;;15.60;99.90;;;;;;5092580;28;20431;-87
2023/07/21 03:43:37;;;;;;;2.50;1.07;;;15.60;99.90;;;;;;5093801;28;20545;-83
2023/07/21 03:46:04;;;;;;;2.10;0.70;;;15.60;99.90;;;;;;5093488;28;20426;-82
2023/07/21 03:48:31;;;;;;;2.57;1.50;;;15.60;99.90;;;;;;5093636;28;20494;-89
2023/07/21 03:51:00;;;;;;;3.80;1.60;;;15.60;99.90;;;;;;5093530;28;20507;-78
2023/07/21 03:53:27;;;;;;;3.45;1.77;;;15.50;99.90;;;;;;5093444;28;20391;-78
2023/07/21 03:55:52;;;;;;;2.60;1.50;;;15.50;99.90;;;;;;5093426;28;20175;-85
2023/07/21 03:58:18;;;;;;;6.80;1.50;;;15.50;99.90;;;;;;5093440;28;21086;-80
2023/07/21 04:00:44;;;;;;;2.17;1.27;;;15.60;99.90;;;;;;5093517;28;20178;-81
2023/07/21 04:03:09;;;;;;;2.97;2.60;;;15.60;99.90;;;;;;5093252;28;20560;-78
2023/07/21 04:05:35;;;;;;;4.83;1.77;;;15.60;99.90;;;;;;5093446;28;20168;-79
2023/07/21 04:08:01;;;;;;;2.67;1.67;;;15.60;99.90;;;;;;5093319;28;20567;-88
2023/07/21 04:10:27;;;;;;;3.57;1.10;;;15.70;99.90;;;;;;5093033;28;20256;-78
2023/07/21 04:12:56;;;;;;;5.23;1.70;;;15.70;99.90;;;;;;5093180;28;20444;-78
2023/07/21 04:15:25;;;;;;;3.03;1.23;;;15.80;99.90;;;;;;5093153;28;20200;-86
2023/07/21 04:17:54;;;;;;;2.87;0.83;;;15.80;99.90;;;;;;5092755;28;20418;-78
2023/07/21 04:20:22;;;;;;;4.77;2.10;;;15.80;99.90;;;;;;5093021;28;20822;-77
2023/07/21 04:22:48;;;;;;;3.20;1.00;;;15.70;99.90;;;;;;5093167;28;20926;-78
2023/07/21 04:25:15;;;;;;;4.77;1.73;;;15.70;99.90;;;;;;5093119;28;20415;-78
2023/07/21 04:27:41;;;;;;;3.47;1.60;;;15.70;99.90;;;;;;5093108;28;21283;-78
2023/07/21 04:30:07;;;;;;;2.77;1.07;;;15.80;99.90;;;;;;5093120;28;20426;-78
2023/07/21 04:32:33;;;;;;;3.90;1.07;;;15.80;99.90;;;;;;5091289;28;20262;-85
2023/07/21 04:34:59;;;;;;;6.20;1.80;;;15.80;99.90;;;;;;5093031;28;20442;-78
2023/07/21 04:37:34;;;;;;;4.10;0.97;;;15.90;99.90;;;;;;5093054;28;20173;-88
2023/07/21 04:39:59;;;;;;;5.53;1.60;;;15.80;99.90;;;;;;5093039;28;20470;-87
2023/07/21 04:42:25;;;;;;;3.10;1.07;;;15.70;99.90;;;;;;5092946;28;20458;-87
2023/07/21 04:44:50;;;;;;;4.87;1.50;;;15.80;99.90;;;;;;5088824;28;20283;-88
2023/07/21 04:47:15;;;;;;;2.47;0.87;;;15.90;99.90;;;;;;5081027;28;20690;-88
2023/07/21 04:49:41;;;;;;;2.57;1.67;;;15.90;99.90;;;;;;5084355;28;20206;-87
2023/07/21 04:52:07;;;;;;;2.93;1.67;;;15.90;99.90;;;;;;5081351;28;20161;-86
2023/07/21 04:54:34;;;;;;;3.93;1.53;;;16.00;99.90;;;;;;5084317;28;20232;-85
2023/07/21 04:56:59;;;;;;;2.60;1.13;;;16.00;99.90;;;;;;5090540;28;20283;-85
2023/07/21 04:59:25;;;;;;;2.73;1.20;;;16.00;99.90;;;;;;5094908;28;20476;-86
2023/07/21 05:01:51;;;;;;;2.10;1.40;;;16.00;99.90;;;;;;5096566;28;20239;-88
2023/07/21 05:04:16;;;;;;;2.53;1.57;;;16.10;99.90;;;;;;5096580;28;20565;-85
2023/07/21 05:06:43;;;;;;;2.93;1.57;;;16.10;99.90;;;;;;5096451;28;20176;-85
2023/07/21 05:09:10;;;;;;;4.80;1.83;;;16.20;99.90;;;;;;5096341;28;20586;-86
2023/07/21 05:11:35;;;;;;;2.37;1.70;;;16.30;99.90;;;;;;5096265;28;20994;-85
2023/07/21 05:14:03;;;;;;;4.83;1.50;;;16.30;99.90;;;;;;5095805;28;20412;-83
2023/07/21 05:16:29;;;;;;;4.33;1.30;;;16.30;99.90;;;;;;5096029;28;20188;-87
2023/07/21 05:18:58;;;;;;;4.73;2.10;;;16.40;99.90;;;;;;5096129;28;20455;-89
2023/07/21 05:21:24;;;;;;;3.23;1.20;;;16.40;99.90;;;;;;5096806;28;20927;-89
2023/07/21 05:23:49;;;;;;;3.10;0.90;;;16.50;99.90;;;;;;5096978;28;20420;-91
2023/07/21 05:26:16;;;;;;;4.83;1.77;;;16.50;99.90;;;;;;5097379;28;20173;-90
2023/07/21 05:28:41;;;;;;;4.43;1.53;;;16.60;99.90;;;;;;5096182;28;20174;-92
2023/07/21 05:31:11;;;;;;;2.00;1.10;;;16.70;99.90;;;;;;5096167;28;20423;-79
2023/07/21 05:33:36;;;;;;;3.60;1.10;;;16.70;99.90;;;;;;5097151;28;20243;-90
2023/07/21 05:36:08;;;;;;;4.83;1.80;;;16.80;99.90;;;;;;5097057;28;20412;-92
2023/07/21 05:38:34;;;;;;;2.10;1.00;;;16.90;99.90;;;;;;5097046;28;20250;-90
2023/07/21 05:41:00;;;;;;;2.20;1.40;;;17.00;99.90;;;;;;5095454;28;20428;-87
2023/07/21 05:43:25;;;;;;;3.43;1.17;;;17.10;99.90;;;;;;5095550;28;20450;-86
2023/07/21 05:45:51;;;;;;;3.60;1.47;;;17.30;20.10;;;;;;5095624;28;20622;-87
2023/07/21 05:48:16;;;;;;;4.30;1.60;;;17.30;1.00;;;;;;5088065;28;20184;-84
2023/07/21 05:50:42;;;;;;;5.07;0.90;;;17.30;1.00;;;;;;5075304;28;20201;-85
2023/07/21 05:53:08;;;;;;;2.90;1.03;;;17.40;1.00;;;;;;5075296;28;20175;-84
2023/07/21 05:55:33;;;;;;;3.83;1.20;;;17.60;1.00;;;;;;5075255;28;20168;-85
2023/07/21 05:58:02;;;;;;;1.90;1.23;;;17.60;1.00;;;;;;5075180;28;20425;-87
2023/07/21 06:00:27;;;;;;;6.00;2.07;;;17.80;1.00;;;;;;5074947;28;20730;-84
2023/07/21 06:02:53;;;;;;;2.90;1.20;;;17.80;1.00;;;;;;5074810;28;20497;-83
2023/07/21 06:05:18;;;;;;;2.93;0.97;;;17.90;1.00;;;;;;5075196;28;20255;-83
2023/07/21 06:07:45;;;;;;;1.90;1.40;;;18.10;1.00;;;;;;5075022;28;20647;-86
2023/07/21 06:10:11;;;;;;;3.97;1.93;;;18.20;1.00;;;;;;5073362;28;20178;-86
2023/07/21 06:12:38;;;;;;;3.93;1.57;;;18.40;1.00;;;;;;5074834;28;20411;-85
2023/07/21 06:15:06;;;;;;;2.00;0.90;;;18.50;1.00;;;;;;5074889;28;20408;-84
2023/07/21 06:17:31;;;;;;;4.60;1.83;;;18.70;1.00;;;;;;5074577;28;20472;-86
2023/07/21 06:19:56;;;;;;;2.63;0.70;;;18.90;1.00;;;;;;5074762;28;20473;-87
2023/07/21 06:22:22;;;;;;;5.17;1.20;;;19.10;99.90;;;;;;5075096;28;20172;-84
2023/07/21 06:24:47;;;;;;;3.80;0.83;;;19.30;99.90;;;;;;5074627;28;20175;-84
2023/07/21 06:27:16;;;;;;;1.27;0.50;;;19.40;99.90;;;;;;5074700;28;20168;-77
2023/07/21 06:29:41;;;;;;;3.60;1.50;;;19.60;1.00;;;;;;5074452;28;20253;-82
2023/07/21 06:32:07;;;;;;;2.80;0.83;;;19.50;1.00;;;;;;5072659;28;20450;-78
2023/07/21 06:34:33;;;;;;;5.93;2.37;;;19.70;1.00;;;;;;5073950;28;20234;-82
2023/07/21 06:36:58;;;;;;;3.30;0.70;;;19.90;14.80;;;;;;5074406;28;20414;-82
2023/07/21 06:39:24;;;;;;;1.27;0.50;;;20.00;99.90;;;;;;5074374;28;20692;-83
2023/07/21 06:41:51;;;;;;;2.60;0.40;;;20.20;1.00;;;;;;5074202;28;20689;-78
2023/07/21 06:44:20;;;;;;;1.50;0.20;;;20.30;99.90;;;;;;5074273;28;20181;-81
2023/07/21 06:46:47;;;;;;;1.20;0.23;;;20.50;99.90;;;;;;5072644;28;20419;-83
2023/07/21 06:49:14;;;;;;;2.43;0.50;;;20.80;1.00;;;;;;5074161;28;20419;-78
2023/07/21 06:51:40;;;;;;;3.33;0.47;;;21.00;1.00;;;;;;5074114;28;20417;-84
2023/07/21 06:54:08;;;;;;;3.47;0.63;;;21.30;1.00;;;;;;5073955;28;20546;-83
2023/07/21 06:56:33;;;;;;;1.87;0.40;;;21.50;1.00;;;;;;5074008;28;20162;-78
2023/07/21 06:59:02;;;;;;;1.77;0.43;;;21.80;99.90;;;;;;5073977;28;20595;-81
2023/07/21 07:01:27;;;;;;;1.90;0.30;;;22.00;1.00;;;;;;5073579;28;20220;-83
2023/07/21 07:03:53;;;;;;;3.90;0.83;;;21.90;1.00;;;;;;5073792;28;20425;-82
2023/07/21 07:06:18;;;;;;;2.03;0.57;;;21.70;1.00;;;;;;5073759;28;20267;-83
2023/07/21 07:08:47;;;;;;;1.83;0.43;;;21.60;1.00;;;;;;5073689;28;20184;-84
2023/07/21 07:11:12;;;;;;;2.30;0.50;;;21.90;1.00;;;;;;5073746;28;20174;-86
2023/07/21 07:13:38;;;;;;;1.23;0.50;;;22.00;1.00;;;;;;5073727;28;20421;-81
2023/07/21 07:16:04;;;;;;;2.90;0.57;;;21.70;1.00;;;;;;5072006;28;20201;-80
2023/07/21 07:18:29;;;;;;;1.87;0.60;;;21.60;1.00;;;;;;5072328;28;20538;-81
2023/07/21 07:20:56;;;;;;;4.53;0.90;;;21.50;1.00;;;;;;5072919;28;20189;-81
2023/07/21 07:23:23;;;;;;;2.33;0.50;;;21.60;1.00;;;;;;5073580;28;20685;-81
2023/07/21 07:25:53;;;;;;;1.10;0.50;;;21.90;39.70;;;;;;5073552;28;20436;-83
2023/07/21 07:28:20;;;;;;;2.50;0.37;;;22.30;1.00;;;;;;5073524;28;20422;-83
2023/07/21 07:30:47;;;;;;;2.33;0.47;;;22.80;1.00;;;;;;5073443;28;20425;-83
2023/07/21 07:33:16;;;;;;;2.83;0.70;;;23.00;1.00;;;;;;5073305;28;20422;-86
2023/07/21 07:35:49;;;;;;;1.33;0.87;;;23.00;99.90;;;;;;5073432;28;20405;-82
2023/07/21 07:38:18;;;;;;;2.40;0.30;;;22.90;99.90;;;;;;5072146;28;20461;-85
2023/07/21 07:40:43;;;;;;;1.27;0.50;;;22.90;99.90;;;;;;5073281;28;20471;-83
2023/07/21 07:43:09;;;;;;;2.00;0.53;;;22.80;99.90;;;;;;5073213;28;20457;-82
2023/07/21 07:45:36;;;;;;;1.80;0.70;;;22.70;99.90;;;;;;5073242;28;20204;-84
2023/07/21 07:48:02;;;;;;;4.30;1.00;;;22.90;99.90;;;;;;5072913;28;20288;-83
2023/07/21 07:50:27;;;;;;;1.60;0.70;;;23.00;99.90;;;;;;5073199;28;20444;-82
2023/07/21 07:52:53;;;;;;;2.00;0.90;;;23.10;99.90;;;;;;5071826;28;20218;-85
2023/07/21 07:55:19;;;;;;;1.20;0.63;;;23.10;99.90;;;;;;5072973;28;20182;-84
2023/07/21 07:57:44;;;;;;;2.27;0.97;;;23.00;99.90;;;;;;5073100;28;20573;-84
2023/07/21 08:00:13;;;;;;;2.50;0.40;;;22.90;99.90;;;;;;5072997;28;20208;-84
2023/07/21 08:02:39;;;;;;;1.47;0.60;;;23.00;99.90;;;;;;5072679;28;20223;-83
2023/07/21 08:05:05;;;;;;;1.77;0.50;;;23.00;99.90;;;;;;5072918;28;20426;-84
2023/07/21 08:07:30;;;;;;;1.00;0.60;;;23.00;99.90;;;;;;5073069;28;20258;-84
2023/07/21 08:09:56;;;;;;;2.13;0.80;;;23.00;99.90;;;;;;5072929;28;20547;-82
2023/07/21 08:12:22;;;;;;;1.50;0.50;;;23.20;99.90;;;;;;5072804;28;20201;-83
2023/07/21 08:14:47;;;;;;;3.30;0.37;;;23.30;99.90;;;;;;5071621;28;20168;-83
2023/07/21 08:17:13;;;;;;;1.50;0.30;;;23.40;99.90;;;;;;5072564;28;20177;-83
2023/07/21 08:19:39;;;;;;;1.40;0.50;;;23.50;99.90;;;;;;5072774;28;20211;-82
2023/07/21 08:22:05;;;;;;;1.40;0.40;;;23.50;99.90;;;;;;5072747;28;20176;-84
2023/07/21 08:24:31;;;;;;;1.80;0.30;;;23.80;99.90;;;;;;5072780;28;20184;-83
2023/07/21 08:26:59;;;;;;;2.60;0.40;;;23.90;99.90;;;;;;5072708;28;20415;-79
2023/07/21 08:29:27;;;;;;;3.77;1.00;;;24.20;99.90;;;;;;5072693;28;20525;-82
2023/07/21 08:31:52;;;;;;;3.00;0.43;;;24.20;99.90;;;;;;5073393;28;20415;-83
2023/07/21 08:34:18;;;;;;;3.00;1.10;;;24.30;99.90;;;;;;5076711;28;20411;-83
2023/07/21 08:36:43;;;;;;;2.70;0.60;;;24.10;99.90;;;;;;5075355;28;20225;-82
2023/07/21 08:39:09;;;;;;;1.63;0.70;;;24.10;99.90;;;;;;5076471;28;20223;-81
2023/07/21 08:41:42;;;;;;;1.20;0.20;;;23.90;99.90;;;;;;5076656;28;20252;-83
2023/07/21 08:44:08;;;;;;;1.90;0.87;;;23.90;99.90;;;;;;5076442;28;20690;-83
2023/07/21 08:46:33;;;;;;;2.27;0.90;;;24.10;99.90;;;;;;5074964;28;20415;-82
2023/07/21 08:49:01;;;;;;;1.43;0.40;;;24.50;99.90;;;;;;5076491;28;20165;-82
2023/07/21 08:51:26;;;;;;;2.30;1.63;;;24.60;99.90;;;;;;5076408;28;20259;-83
2023/07/21 08:53:52;;;;;;;5.23;0.83;;;24.80;99.90;;;;;;5076290;28;20836;-84
2023/07/21 08:56:17;;;;;;;1.60;0.80;;;25.00;99.90;;;;;;5076331;28;20180;-86
2023/07/21 08:58:43;;;;;;;2.33;0.90;;;25.50;99.90;;;;;;5076269;28;20173;-84
2023/07/21 09:01:09;;;;;;;1.77;0.60;;;26.20;99.90;;;;;;5075972;28;20295;-82
2023/07/21 09:03:34;;;;;;;1.67;0.93;;;26.90;99.90;;;;;;5076219;28;20180;-84
2023/07/21 09:06:03;;;;;;;1.03;0.83;;;27.60;99.90;;;;;;5076084;28;20173;-84
2023/07/21 09:08:32;;;;;;;2.40;0.83;;;27.90;99.90;;;;;;5076063;28;20541;-82
2023/07/21 09:11:02;;;;;;;1.57;0.63;;;28.40;99.90;;;;;;5076134;28;20439;-84
2023/07/21 09:13:29;;;;;;;1.87;1.37;;;28.90;99.90;;;;;;5075988;28;21076;-84
2023/07/21 09:15:57;;;;;;;1.67;0.67;;;29.10;99.90;;;;;;5075648;28;20446;-85
2023/07/21 09:18:39;;;;;;;3.00;2.70;;;29.40;99.90;;;;;;5076051;28;20834;-83
2023/07/21 09:21:07;;;;;;;2.87;1.17;;;29.80;99.90;;;;;;5075933;28;20431;-84
2023/07/21 09:23:33;;;;;;;2.80;0.90;;;30.00;99.90;;;;;;5075857;28;20435;-81
2023/07/21 09:26:00;;;;;;;1.10;0.83;;;30.00;99.90;;;;;;5075750;28;21044;-81
2023/07/21 09:28:41;;;;;;;1.70;0.70;;;30.10;99.90;;;;;;5075767;28;20490;-83
2023/07/21 09:31:07;;;;;;;1.83;1.03;;;30.10;99.90;;;;;;5075372;28;20412;-85
2023/07/21 09:33:42;;;;;;;1.97;1.20;;;30.20;99.90;;;;;;5075729;28;20785;-84
2023/07/21 09:36:15;;;;;;;2.23;0.90;;;30.20;99.90;;;;;;5075527;28;20560;-84
2023/07/21 09:38:40;;;;;;;4.40;1.30;;;30.10;99.90;;;;;;5075503;28;20839;-81
2023/07/21 09:41:09;;;;;;;1.80;0.60;;;30.50;99.90;;;;;;5075522;28;20476;-81
2023/07/21 09:43:35;;;;;;;1.43;0.57;;;31.10;99.90;;;;;;5074672;28;20217;-85
2023/07/21 09:46:06;;;;;;;1.47;0.60;;;31.50;99.90;;;;;;5075153;28;20556;-80
2023/07/21 09:48:33;;;;;;;1.53;0.57;;;32.00;99.90;;;;;;5074188;28;20915;-84
2023/07/21 09:51:07;;;;;;;4.07;0.63;;;32.30;99.90;;;;;;5075273;28;20814;-84
2023/07/21 09:53:41;;;;;;;1.10;0.53;;;32.30;99.90;;;;;;5075363;28;20774;-85
2023/07/21 09:56:11;;;;;;;1.70;0.63;;;32.60;99.90;;;;;;5075376;28;20408;-84
2023/07/21 09:59:01;;;;;;;2.10;0.90;;;32.50;99.90;;;;;;5075126;28;20510;-83
2023/07/21 10:01:29;;;;;;;0.80;0.60;;;31.90;99.90;;;;;;5072889;28;20427;-82
2023/07/21 10:03:54;;;;;;;1.07;0.33;;;31.90;99.90;;;;;;5073926;28;20468;-83
2023/07/21 10:06:22;;;;;;;3.10;0.57;;;31.90;99.90;;;;;;5074977;28;20419;-84
2023/07/21 10:08:50;;;;;;;2.03;0.50;;;32.00;99.90;;;;;;5075018;28;20196;-80
2023/07/21 10:11:16;;;;;;;3.60;0.87;;;32.00;99.90;;;;;;5074913;28;20407;-84
2023/07/21 10:13:51;;;;;;;1.40;0.40;;;31.50;99.90;;;;;;5075035;28;20417;-83
2023/07/21 10:16:21;;;;;;;0.90;0.60;;;31.10;99.90;;;;;;5074428;28;20585;-84
2023/07/21 10:19:07;;;;;;;1.17;0.60;;;30.70;99.90;;;;;;5074854;28;20421;-83
2023/07/21 10:21:53;;;;;;;1.57;0.80;;;30.70;99.90;;;;;;5074815;28;20852;-82
2023/07/21 10:24:48;;;;;;;1.30;0.43;;;30.70;99.90;;;;;;5074390;28;20407;-82
2023/07/21 10:27:21;;;;;;;2.30;0.57;;;30.80;99.90;;;;;;5073162;28;20832;-82
2023/07/21 10:29:51;;;;;;;2.03;0.50;;;30.80;99.90;;;;;;5073298;28;20423;-86
2023/07/21 10:32:18;;;;;;;2.50;0.37;;;30.90;99.90;;;;;;5081986;28;20494;-81
2023/07/21 10:34:44;;;;;;;0.70;0.37;;;30.80;99.90;;;;;;5088615;28;20949;-81
2023/07/21 10:37:09;;;;;;;1.57;0.70;;;30.30;99.90;;;;;;5082851;28;20502;-85
2023/07/21 10:39:42;;;;;;;1.00;0.40;;;29.80;99.90;;;;;;5084607;28;20675;-81
2023/07/21 10:42:09;;;;;;;2.47;0.70;;;29.30;99.90;;;;;;5084171;28;20201;-80
2023/07/21 10:44:47;;;;;;;0.87;0.33;;;28.70;99.90;;;;;;5083024;28;20742;-81
2023/07/21 10:47:16;;;;;;;1.40;0.40;;;28.10;99.90;;;;;;5076668;28;20773;-81
2023/07/21 10:49:46;;;;;;;3.33;0.40;;;27.70;99.90;;;;;;5083074;28;20448;-84
2023/07/21 10:52:11;;;;;;;0.93;0.30;;;27.60;99.90;;;;;;5085482;28;20403;-80
2023/07/21 10:54:37;;;;;;;1.97;0.40;;;27.50;99.90;;;;;;5076488;28;20923;-82
2023/07/21 10:57:03;;;;;;;1.50;0.57;;;27.20;99.90;;;;;;5073349;28;20177;-83
2023/07/21 10:59:33;;;;;;;1.90;0.77;;;26.90;99.90;;;;;;5072625;28;20478;-80
2023/07/21 11:02:00;;;;;;;2.70;0.50;;;26.60;99.90;;;;;;5072351;28;20202;-83
2023/07/21 11:04:25;;;;;;;1.70;0.77;;;26.30;99.90;;;;;;5073903;28;20451;-84
2023/07/21 11:06:53;;;;;;;3.17;0.30;;;26.50;99.90;;;;;;5073883;28;20418;-84
2023/07/21 11:09:21;;;;;;;27.30;7.77;;;26.90;99.90;;;;;;5073789;28;20172;-79
2023/07/21 11:11:48;;;;;;;3.33;1.43;;;27.40;99.90;;;;;;5073717;28;20477;-87
2023/07/21 11:14:19;;;;;;;3.53;0.60;;;27.20;99.90;;;;;;5072377;28;20836;-83
2023/07/21 11:16:59;;;;;;;2.47;0.77;;;27.10;99.90;;;;;;5073355;28;20934;-83
2023/07/21 11:19:26;;;;;;;3.37;0.77;;;26.90;99.90;;;;;;5073659;28;20450;-84
2023/07/21 11:21:52;;;;;;;2.00;0.30;;;26.70;99.90;;;;;;5073562;28;20423;-84
2023/07/21 11:24:20;;;;;;;4.90;0.80;;;26.50;99.90;;;;;;5073599;28;20506;-83
2023/07/21 11:26:49;;;;;;;2.03;0.47;;;26.40;99.90;;;;;;5073500;28;20411;-83
2023/07/21 11:29:16;;;;;;;0.90;0.33;;;26.40;99.90;;;;;;5073709;28;20411;-84
2023/07/21 11:31:42;;;;;;;1.63;0.53;;;26.30;99.90;;;;;;5073010;28;20506;-83
2023/07/21 11:34:22;;;;;;;1.83;0.40;;;26.10;99.90;;;;;;5072070;28;20526;-84
2023/07/21 11:36:52;;;;;;;1.30;0.30;;;25.90;99.90;;;;;;5073294;28;20403;-84
2023/07/21 11:39:19;;;;;;;3.60;0.53;;;25.60;99.90;;;;;;5073189;28;20471;-84
2023/07/21 11:41:51;;;;;;;0.50;0.40;;;25.40;99.90;;;;;;5073328;28;20501;-83
2023/07/21 11:44:22;;;;;;;0.70;0.20;;;25.30;99.90;;;;;;5073321;28;20919;-80
2023/07/21 11:47:06;;;;;;;1.70;0.30;;;25.10;99.90;;;;;;5075383;28;20522;-83
2023/07/21 11:49:36;;;;;;;2.70;0.40;;;24.90;99.90;;;;;;5081912;28;20429;-83
2023/07/21 11:52:03;;;;;;;1.20;0.60;;;24.70;99.90;;;;;;5073016;28;20945;-82
2023/07/21 11:54:39;;;;;;;2.30;0.40;;;24.60;99.90;;;;;;5072920;28;20429;-80
2023/07/21 11:57:09;;;;;;;2.50;0.40;;;24.40;99.90;;;;;;5072991;28;20441;-80
2023/07/21 11:59:35;;;;;;;0.90;0.50;;;24.30;99.90;;;;;;5072713;28;20470;-79
2023/07/21 12:02:08;;;;;;;1.30;0.30;;;24.40;99.90;;;;;;5072527;28;20416;-82
2023/07/21 12:04:35;;;;;;;2.63;0.73;;;24.40;99.90;;;;;;5072615;28;20877;-81
2023/07/21 12:07:01;;;;;;;1.00;0.40;;;24.70;99.90;;;;;;5072547;28;20762;-81
2023/07/21 12:09:27;;;;;;;0.67;0.33;;;25.20;99.90;;;;;;5072792;28;20451;-82
2023/07/21 12:12:02;;;;;;;0.90;0.30;;;25.80;99.90;;;;;;5071503;28;20896;-81
2023/07/21 12:14:29;;;;;;;0.70;0.20;;;26.30;99.90;;;;;;5072935;28;20415;-82
2023/07/21 12:16:56;;;;;;;1.67;0.53;;;26.70;99.90;;;;;;5072343;28;20445;-82
2023/07/21 12:19:25;;;;;;;2.10;0.50;;;27.30;99.90;;;;;;5072636;28;20454;-84
2023/07/21 12:21:51;;;;;;;1.10;0.27;;;27.80;99.90;;;;;;5071455;28;20837;-84
2023/07/21 12:24:17;;;;;;;1.17;0.20;;;28.10;99.90;;;;;;5072705;28;20415;-84
2023/07/21 12:26:43;;;;;;;1.13;0.43;;;28.20;99.90;;;;;;5072602;28;20507;-83
2023/07/21 12:29:09;;;;;;;0.90;0.30;;;28.30;99.90;;;;;;5072670;28;20498;-83
2023/07/21 12:31:41;;;;;;;0.80;0.57;;;28.30;99.90;;;;;;5072294;28;20294;-83
2023/07/21 12:34:06;;;;;;;0.83;0.37;;;28.50;99.90;;;;;;5072057;28;20252;-83
2023/07/21 12:36:32;;;;;;;0.80;0.30;;;28.50;99.90;;;;;;5081241;28;20530;-84
2023/07/21 12:38:57;;;;;;;1.40;0.37;;;28.50;99.90;;;;;;5082942;28;20236;-83
2023/07/21 12:41:23;;;;;;;1.07;0.30;;;28.50;99.90;;;;;;5090486;28;20640;-84
2023/07/21 12:43:48;;;;;;;3.43;0.30;;;28.50;99.90;;;;;;5084723;28;20684;-83
2023/07/21 12:46:14;;;;;;;1.73;0.50;;;28.40;99.90;;;;;;5071305;28;20217;-84
2023/07/21 12:48:41;;;;;;;1.47;0.40;;;28.30;99.90;;;;;;5082492;28;20180;-84